Time;durP1;ratioP1;P1;durP2;ratioP2;P2;SDS_P1;SDS_P2;PMS_P1;PMS_P2;Temp;Humidity;BMP_temperature;BMP_pressure;BME280_temperature;BME280_humidity;BME280_pressure;Samples;Min_cycle;Max_cycle;Signal;HPM_P1;HPM_P2
2022/05/21 00:00:23;;;;;;;3.65;1.27;;;;;;;26.92;16.40;100610.72;4935212;29;20055;-55
2022/05/21 00:02:51;;;;;;;3.47;1.08;;;;;;;26.57;15.41;100607.09;4934273;29;20539;-55
2022/05/21 00:05:20;;;;;;;3.78;1.05;;;;;;;26.75;15.75;100605.19;4935037;29;20074;-55
2022/05/21 00:07:46;;;;;;;3.00;0.73;;;;;;;26.83;15.56;100599.75;4934261;29;20393;-55
2022/05/21 00:10:14;;;;;;;4.10;0.90;;;;;;;26.73;15.07;100593.75;4934681;29;20117;-55
2022/05/21 00:12:42;;;;;;;3.45;1.02;;;;;;;26.83;16.66;100599.75;4934666;28;20052;-55
2022/05/21 00:15:11;;;;;;;2.35;0.98;;;;;;;26.80;15.23;100610.53;4934893;28;20436;-55
2022/05/21 00:17:38;;;;;;;2.85;0.88;;;;;;;26.88;16.40;100607.03;4936260;28;21241;-56
2022/05/21 00:20:07;;;;;;;5.47;1.42;;;;;;;26.63;15.70;100603.09;4952380;29;20059;-56
2022/05/21 00:22:33;;;;;;;3.50;0.90;;;;;;;26.62;15.64;100603.41;4953549;28;20027;-56
2022/05/21 00:24:59;;;;;;;2.92;0.90;;;;;;;26.47;15.55;100605.47;4950882;28;20026;-56
2022/05/21 00:27:25;;;;;;;3.63;0.80;;;;;;;26.47;15.44;100599.16;4948303;28;20108;-55
2022/05/21 00:29:52;;;;;;;3.28;0.98;;;;;;;26.32;16.18;100597.66;4950112;28;20049;-56
2022/05/21 00:32:18;;;;;;;2.47;0.77;;;;;;;26.53;15.76;100598.69;4950533;28;20038;-55
2022/05/21 00:34:44;;;;;;;2.25;0.90;;;;;;;26.38;15.54;100604.59;4953492;28;20015;-55
2022/05/21 00:37:10;;;;;;;4.45;1.27;;;;;;;26.17;16.29;100598.06;4943066;28;20472;-55
2022/05/21 00:39:36;;;;;;;3.50;1.50;;;;;;;26.18;16.03;100599.69;4952586;28;20039;-56
2022/05/21 00:42:08;;;;;;;2.97;0.90;;;;;;;26.15;15.55;100606.63;4942422;28;20472;-54
2022/05/21 00:44:35;;;;;;;4.15;0.98;;;;;;;26.02;16.16;100605.56;4951740;28;20101;-55
2022/05/21 00:47:01;;;;;;;3.70;0.90;;;;;;;25.91;16.13;100589.72;4951900;28;20090;-54
2022/05/21 00:49:34;;;;;;;2.95;0.93;;;;;;;26.03;16.32;100595.41;4945722;28;20034;-52
2022/05/21 00:52:07;;;;;;;4.00;1.10;;;;;;;26.06;16.76;100601.09;4951697;28;20024;-52
2022/05/21 00:54:40;;;;;;;1.92;0.90;;;;;;;25.84;16.70;100601.13;4953382;28;20031;-53
2022/05/21 00:57:22;;;;;;;2.58;1.00;;;;;;;25.98;17.33;100585.38;4952324;28;20035;-54
2022/05/21 00:59:53;;;;;;;7.80;1.73;;;;;;;26.11;17.12;100586.44;4946127;28;20031;-53
2022/05/21 01:02:40;;;;;;;8.43;1.40;;;;;;;26.14;15.89;100593.19;4954802;29;20206;-51
2022/05/21 01:05:11;;;;;;;3.55;1.10;;;;;;;25.97;16.47;100593.94;4957096;28;20093;-54
2022/05/21 01:07:41;;;;;;;5.15;1.05;;;;;;;25.92;17.27;100591.31;4956619;28;20023;-53
2022/05/21 01:10:09;;;;;;;3.17;1.50;;;;;;;26.11;17.72;100591.09;4948087;28;20130;-54
2022/05/21 01:12:41;;;;;;;5.28;1.30;;;;;;;26.25;17.30;100586.31;4956108;28;20031;-54
2022/05/21 01:15:11;;;;;;;4.10;1.40;;;;;;;26.20;16.99;100586.44;4956982;28;20520;-53
2022/05/21 01:17:38;;;;;;;5.18;1.40;;;;;;;25.94;16.56;100594.56;4956477;28;20067;-54
2022/05/21 01:20:07;;;;;;;3.75;1.20;;;;;;;26.02;17.33;100602.03;4955587;28;20027;-52
2022/05/21 01:22:41;;;;;;;3.20;1.58;;;;;;;25.94;17.22;100595.38;4937070;28;20047;-53
2022/05/21 01:25:08;;;;;;;2.78;1.38;;;;;;;25.86;17.24;100598.88;4958592;28;20024;-53
2022/05/21 01:27:34;;;;;;;4.78;1.10;;;;;;;25.83;17.46;100601.47;4956940;28;20114;-53
2022/05/21 01:30:06;;;;;;;2.17;0.95;;;;;;;25.99;17.53;100595.25;4956549;28;20043;-54
2022/05/21 01:32:32;;;;;;;3.95;1.20;;;;;;;26.05;17.83;100599.47;4973654;28;20026;-54
2022/05/21 01:34:59;;;;;;;8.40;3.30;;;;;;;26.03;22.77;100609.13;4974568;28;20133;-54
2022/05/21 01:37:25;;;;;;;11.60;3.65;;;;;;;26.27;25.84;100606.03;4957214;28;20110;-55
2022/05/21 01:39:52;;;;;;;13.02;3.40;;;;;;;26.37;26.54;100611.19;4957130;28;20039;-55
2022/05/21 01:42:18;;;;;;;9.13;3.08;;;;;;;26.24;26.09;100606.63;4956690;28;20519;-54
2022/05/21 01:44:46;;;;;;;11.50;3.65;;;;;;;25.98;26.76;100612.81;4956131;28;20054;-53
2022/05/21 01:47:15;;;;;;;14.25;4.60;;;;;;;24.66;28.98;100616.72;4956644;28;20074;-54
2022/05/21 01:49:42;;;;;;;12.18;3.63;;;;;;;24.09;30.06;100623.53;4949906;29;20127;-54
2022/05/21 01:52:11;;;;;;;20.00;4.65;;;;;;;24.11;30.03;100616.69;4937591;29;20055;-54
2022/05/21 01:54:38;;;;;;;16.20;4.75;;;;;;;24.41;30.25;100625.44;4939963;28;20309;-53
2022/05/21 01:57:06;;;;;;;13.82;4.47;;;;;;;24.59;30.71;100626.44;4937220;29;20028;-53
2022/05/21 01:59:33;;;;;;;23.75;4.85;;;;;;;23.81;30.87;100634.41;4944429;29;20040;-54
2022/05/21 02:02:01;;;;;;;15.45;3.95;;;;;;;23.93;30.61;100639.41;4937104;29;20024;-54
2022/05/21 02:04:27;;;;;;;17.00;5.05;;;;;;;24.23;31.48;100636.13;4953606;29;20059;-54
2022/05/21 02:06:54;;;;;;;18.42;4.50;;;;;;;24.49;30.86;100633.75;4955658;28;20019;-53
2022/05/21 02:09:21;;;;;;;20.58;4.45;;;;;;;24.43;31.02;100634.13;4960359;28;20045;-54
2022/05/21 02:11:47;;;;;;;13.45;4.22;;;;;;;24.13;31.60;100641.78;4955668;28;20034;-55
2022/05/21 02:14:13;;;;;;;15.65;4.63;;;;;;;24.37;31.76;100640.81;4955680;28;20032;-53
2022/05/21 02:16:40;;;;;;;15.18;5.35;;;;;;;24.55;31.38;100639.94;4955540;29;20034;-53
2022/05/21 02:19:07;;;;;;;20.35;5.53;;;;;;;24.37;31.59;100647.09;4955956;28;20027;-54
2022/05/21 02:21:36;;;;;;;15.95;5.40;;;;;;;23.78;31.90;100645.97;4956194;28;20443;-54
2022/05/21 02:24:02;;;;;;;16.63;5.47;;;;;;;23.95;31.80;100653.59;4955904;28;20484;-53
2022/05/21 02:26:29;;;;;;;19.17;6.10;;;;;;;23.99;32.21;100660.09;4955510;28;20035;-53
2022/05/21 02:28:55;;;;;;;17.60;5.85;;;;;;;24.00;32.73;100663.66;4955555;28;20027;-53
2022/05/21 02:31:21;;;;;;;25.23;6.28;;;;;;;23.12;33.40;100668.78;4955485;28;20062;-53
2022/05/21 02:33:47;;;;;;;20.27;5.50;;;;;;;23.53;33.19;100665.47;4955892;28;20042;-54
2022/05/21 02:36:14;;;;;;;20.05;6.20;;;;;;;22.42;34.71;100669.31;4955626;28;20031;-53
2022/05/21 02:41:38;;;;;;;20.13;5.93;;;;;;;22.44;34.57;100675.31;4943471;28;20396;-54
2022/05/21 02:44:04;;;;;;;19.48;6.68;;;;;;;21.54;36.32;100664.88;4953860;28;20113;-54
2022/05/21 02:46:31;;;;;;;15.38;6.10;;;;;;;21.01;38.17;100665.47;4955569;28;20102;-53
2022/05/21 02:48:57;;;;;;;20.33;7.03;;;;;;;20.58;39.14;100679.78;4952671;28;20555;-53
2022/05/21 02:51:23;;;;;;;20.48;7.03;;;;;;;20.30;39.72;100677.34;4955241;28;20043;-56
2022/05/21 02:53:50;;;;;;;22.08;7.15;;;;;;;19.85;40.50;100669.25;4955500;28;20027;-53
2022/05/21 02:56:16;;;;;;;23.40;6.90;;;;;;;19.83;40.44;100683.13;4955195;28;20109;-54
2022/05/21 02:58:42;;;;;;;18.02;7.03;;;;;;;19.61;40.69;100675.22;4955239;28;20114;-53
2022/05/21 03:01:08;;;;;;;22.05;7.05;;;;;;;19.34;41.41;100669.16;4955495;28;20488;-53
2022/05/21 03:03:34;;;;;;;28.55;7.43;;;;;;;19.39;41.55;100678.13;4954963;28;20098;-54
2022/05/21 03:06:00;;;;;;;21.58;6.38;;;;;;;18.70;43.22;100679.25;4959508;28;20413;-51
2022/05/21 03:11:11;;;;;;;27.90;8.33;;;;;;;17.93;45.76;100687.91;4974284;28;20077;-53
2022/05/21 03:13:39;;;;;;;34.85;8.25;;;;;;;18.10;44.93;100688.63;4967823;28;20486;-52
2022/05/21 03:16:05;;;;;;;28.35;8.00;;;;;;;18.03;45.21;100689.91;4958661;28;20365;-53
2022/05/21 03:18:35;;;;;;;25.75;8.00;;;;;;;17.81;45.79;100682.69;4974282;28;20047;-54
2022/05/21 03:21:02;;;;;;;28.50;8.15;;;;;;;17.76;45.89;100689.94;4969559;28;20151;-54
2022/05/21 03:23:28;;;;;;;33.83;8.68;;;;;;;17.46;47.51;100701.28;4959058;28;20075;-53
2022/05/21 03:25:55;;;;;;;29.63;7.53;;;;;;;17.44;47.63;100693.41;4955690;28;20046;-54
2022/05/21 03:28:21;;;;;;;26.30;8.15;;;;;;;17.25;47.78;100692.94;4973965;28;20041;-53
2022/05/21 03:30:48;;;;;;;26.45;7.35;;;;;;;16.69;49.18;100686.81;4973682;28;20488;-53
2022/05/21 03:33:14;;;;;;;33.40;7.93;;;;;;;16.68;49.29;100696.00;4973816;28;20046;-53
2022/05/21 03:35:41;;;;;;;30.58;8.70;;;;;;;16.91;48.84;100702.25;4962749;28;20039;-52
2022/05/21 03:38:11;;;;;;;38.58;8.90;;;;;;;16.89;48.06;100702.50;4953598;28;20059;-53
2022/05/21 03:40:38;;;;;;;20.92;7.68;;;;;;;17.02;47.57;100706.72;4953460;28;20029;-53
2022/05/21 03:43:04;;;;;;;25.92;7.38;;;;;;;16.90;47.61;100704.16;4953692;29;20564;-52
2022/05/21 03:45:32;;;;;;;28.42;7.25;;;;;;;16.97;48.25;100710.19;4954300;28;20051;-53
2022/05/21 03:47:58;;;;;;;35.00;8.70;;;;;;;16.30;50.36;100711.09;4954431;28;20247;-50
2022/05/21 03:50:27;;;;;;;29.52;8.15;;;;;;;16.26;50.64;100711.84;4954655;28;20493;-52
2022/05/21 03:52:53;;;;;;;33.72;9.15;;;;;;;16.28;51.84;100710.56;4954537;28;20031;-52
2022/05/21 03:55:19;;;;;;;29.95;8.18;;;;;;;16.04;52.20;100720.69;4954970;28;20063;-52
2022/05/21 03:57:46;;;;;;;35.65;8.65;;;;;;;15.85;53.38;100727.38;4961754;28;20019;-52
2022/05/21 04:00:14;;;;;;;34.88;8.18;;;;;;;15.99;53.08;100717.94;4973001;28;20541;-51
2022/05/21 04:02:40;;;;;;;31.15;7.72;;;;;;;15.73;53.99;100719.34;4966784;28;20031;-51
2022/05/21 04:05:09;;;;;;;34.58;9.40;;;;;;;15.83;53.90;100732.22;4954297;28;20388;-51
2022/05/21 04:07:36;;;;;;;41.40;10.50;;;;;;;15.76;53.52;100726.13;4953761;28;20063;-52
2022/05/21 04:10:03;;;;;;;38.47;8.15;;;;;;;15.47;54.93;100739.63;4953833;28;20035;-51
2022/05/21 04:12:29;;;;;;;37.10;9.52;;;;;;;15.22;55.82;100736.44;4951321;28;20062;-51
2022/05/21 04:14:56;;;;;;;35.72;7.68;;;;;;;15.27;55.64;100742.75;4952024;28;20045;-51
2022/05/21 04:17:22;;;;;;;31.45;8.15;;;;;;;15.21;55.63;100742.88;4972765;28;20063;-51
2022/05/21 04:19:48;;;;;;;27.58;8.93;;;;;;;15.11;55.84;100737.28;4936285;28;20122;-50
2022/05/21 04:22:14;;;;;;;33.28;9.10;;;;;;;15.12;55.80;100744.31;4972652;28;20241;-49
2022/05/21 04:24:40;;;;;;;27.08;8.20;;;;;;;14.86;57.10;100751.84;4972836;28;20081;-52
2022/05/21 04:27:10;;;;;;;35.28;8.75;;;;;;;14.94;57.33;100745.28;4962740;28;20023;-51
2022/05/21 04:29:37;;;;;;;38.80;9.85;;;;;;;14.78;57.32;100747.66;4952199;28;20392;-52
2022/05/21 04:32:04;;;;;;;34.25;9.18;;;;;;;14.96;57.15;100738.59;4948230;28;20102;-49
2022/05/21 04:34:30;;;;;;;40.95;8.75;;;;;;;14.75;57.50;100747.28;4953243;28;20023;-52
2022/05/21 04:36:56;;;;;;;41.65;9.55;;;;;;;14.57;58.77;100755.50;4953220;28;20027;-52
2022/05/21 04:39:22;;;;;;;42.33;8.88;;;;;;;14.54;58.83;100756.78;4965357;28;20038;-52
2022/05/21 04:41:49;;;;;;;35.47;9.85;;;;;;;14.40;59.28;100756.16;4972822;28;20042;-52
2022/05/21 04:44:16;;;;;;;47.88;9.77;;;;;;;14.48;59.20;100753.16;4973219;28;20050;-49
2022/05/21 04:46:43;;;;;;;38.42;9.32;;;;;;;14.36;59.92;100764.94;4972927;28;20026;-52
2022/05/21 04:49:09;;;;;;;36.08;9.68;;;;;;;13.98;61.17;100768.84;4957212;28;20480;-51
2022/05/21 04:51:38;;;;;;;40.85;9.07;;;;;;;14.02;60.63;100774.59;4953123;28;20093;-51
2022/05/21 04:54:05;;;;;;;35.35;9.32;;;;;;;14.14;60.30;100783.50;4953537;28;20023;-52
2022/05/21 04:56:32;;;;;;;36.13;9.63;;;;;;;14.11;60.06;100778.63;4953052;28;20039;-52
2022/05/21 04:58:58;;;;;;;40.17;9.80;;;;;;;14.02;60.29;100780.81;4956444;28;20039;-51
2022/05/21 05:01:24;;;;;;;35.08;9.43;;;;;;;14.12;60.29;100786.44;4972513;28;20078;-53
2022/05/21 05:03:51;;;;;;;39.33;10.38;;;;;;;14.13;59.82;100787.25;4972566;28;20030;-52
2022/05/21 05:06:17;;;;;;;47.25;11.60;;;;;;;14.02;60.05;100779.97;4954167;28;20114;-52
2022/05/21 05:08:43;;;;;;;49.67;10.20;;;;;;;14.00;60.16;100785.59;4934110;29;20515;-52
2022/05/21 05:11:09;;;;;;;42.63;10.40;;;;;;;13.86;60.62;100790.34;4934056;29;20040;-53
2022/05/21 05:13:35;;;;;;;37.33;9.52;;;;;;;14.09;59.78;100794.97;4934498;29;20107;-51
2022/05/21 05:16:02;;;;;;;43.25;10.23;;;;;;;13.95;60.42;100794.38;4940932;28;20070;-51
2022/05/21 05:18:30;;;;;;;35.47;8.93;;;;;;;13.50;62.04;100793.13;4953458;28;20055;-52
2022/05/21 05:20:57;;;;;;;42.38;9.32;;;;;;;13.60;62.02;100798.75;4952943;28;20069;-52
2022/05/21 05:23:23;;;;;;;51.60;10.52;;;;;;;13.64;61.47;100799.97;4953133;28;20028;-52
2022/05/21 05:25:49;;;;;;;39.28;10.00;;;;;;;13.67;61.39;100808.41;4950915;29;20098;-51
2022/05/21 05:28:19;;;;;;;44.20;9.52;;;;;;;13.55;62.04;100804.00;4966486;28;20126;-50
2022/05/21 05:30:48;;;;;;;41.58;9.90;;;;;;;13.42;62.12;100800.44;4953167;28;20055;-52
2022/05/21 05:33:16;;;;;;;40.88;9.43;;;;;;;13.59;61.36;100803.31;4953106;28;20098;-51
2022/05/21 05:35:42;;;;;;;37.97;9.63;;;;;;;13.48;61.62;100804.91;4952843;28;20523;-50
2022/05/21 05:38:10;;;;;;;33.67;9.85;;;;;;;13.34;61.84;100811.50;4951180;28;20035;-52
2022/05/21 05:40:39;;;;;;;42.50;10.20;;;;;;;13.33;62.43;100809.88;4951503;28;20058;-50
2022/05/21 05:43:06;;;;;;;45.45;8.98;;;;;;;13.36;62.06;100814.78;4953098;28;20027;-52
2022/05/21 05:45:32;;;;;;;38.17;10.07;;;;;;;13.17;62.65;100818.50;4953975;28;20534;-51
2022/05/21 05:47:58;;;;;;;45.60;9.18;;;;;;;13.29;62.18;100814.03;4956283;28;20455;-52
2022/05/21 05:50:25;;;;;;;40.47;9.98;;;;;;;13.16;62.70;100815.00;4956357;28;20030;-52
2022/05/21 05:52:52;;;;;;;39.97;10.48;;;;;;;13.02;63.06;100818.03;4956219;28;20035;-52
2022/05/21 05:55:18;;;;;;;39.47;9.45;;;;;;;13.33;62.14;100809.88;4956551;28;20103;-52
2022/05/21 05:57:52;;;;;;;49.58;10.02;;;;;;;13.44;61.54;100814.50;4936909;29;20468;-51
2022/05/21 06:00:20;;;;;;;45.65;10.45;;;;;;;13.23;62.26;100814.94;4937156;29;20086;-51
2022/05/21 06:02:59;;;;;;;50.92;11.25;;;;;;;13.28;61.73;100807.03;4936905;29;20035;-51
2022/05/21 06:05:29;;;;;;;45.33;9.98;;;;;;;13.06;62.92;100811.19;4937222;29;20477;-50
2022/05/21 06:07:58;;;;;;;36.85;9.75;;;;;;;13.13;62.64;100804.69;4936728;29;20032;-52
2022/05/21 06:10:37;;;;;;;41.22;10.52;;;;;;;13.11;62.90;100814.84;4936917;29;20031;-51
2022/05/21 06:13:05;;;;;;;41.95;9.27;;;;;;;13.04;63.30;100816.75;4955347;28;20061;-51
2022/05/21 06:15:35;;;;;;;43.65;10.45;;;;;;;13.09;63.03;100808.84;4955194;28;20034;-52
2022/05/21 06:18:11;;;;;;;45.88;10.43;;;;;;;13.27;62.72;100809.91;4955101;28;20023;-51
2022/05/21 06:20:38;;;;;;;45.17;9.90;;;;;;;13.03;63.47;100807.06;4954748;28;20031;-52
2022/05/21 06:23:04;;;;;;;43.60;9.70;;;;;;;13.10;63.15;100806.97;4955008;28;20118;-52
2022/05/21 06:25:33;;;;;;;48.25;9.23;;;;;;;13.09;62.94;100811.53;4955010;28;20031;-51
2022/05/21 06:28:01;;;;;;;50.03;11.23;;;;;;;12.56;64.64;100820.13;4954577;28;20038;-52
2022/05/21 06:30:28;;;;;;;42.67;9.95;;;;;;;12.82;64.20;100818.22;4954294;28;20035;-52
2022/05/21 06:32:55;;;;;;;43.28;10.07;;;;;;;12.94;63.29;100795.78;4940165;29;20028;-52
2022/05/21 06:35:24;;;;;;;38.90;9.25;;;;;;;12.86;63.51;100796.06;4950252;28;20035;-52
2022/05/21 06:37:50;;;;;;;43.85;9.25;;;;;;;12.87;63.18;100816.50;4938621;28;20032;-51
2022/05/21 06:40:17;;;;;;;50.65;9.90;;;;;;;12.64;63.86;100825.19;4937538;29;20043;-51
2022/05/21 06:42:44;;;;;;;35.90;9.68;;;;;;;12.92;62.92;100803.22;4951315;29;20027;-52
2022/05/21 06:45:10;;;;;;;44.90;9.75;;;;;;;12.62;64.09;100805.00;4953098;28;20401;-51
2022/05/21 06:47:36;;;;;;;35.78;9.40;;;;;;;12.89;62.69;100801.00;4935668;28;20028;-52
2022/05/21 06:50:04;;;;;;;33.30;9.77;;;;;;;12.83;63.18;100803.78;4950345;29;20035;-49
2022/05/21 06:52:31;;;;;;;37.53;9.00;;;;;;;12.76;63.51;100811.03;4936770;28;20028;-50
2022/05/21 06:54:57;;;;;;;50.47;10.23;;;;;;;12.99;62.36;100816.59;4943538;28;20616;-50
2022/05/21 06:57:28;;;;;;;40.10;10.32;;;;;;;12.94;62.82;100811.91;4948516;28;20111;-49
2022/05/21 06:59:55;;;;;;;37.85;9.30;;;;;;;13.10;61.93;100807.81;4950084;28;20046;-48
2022/05/21 07:02:25;;;;;;;48.28;10.63;;;;;;;13.17;61.62;100813.94;4937960;28;20042;-51
2022/05/21 07:07:43;;;;;;;39.38;10.20;;;;;;;12.97;62.45;100809.81;4949657;29;20130;-49
2022/05/21 07:10:16;;;;;;;46.38;10.52;;;;;;;13.06;62.45;100808.50;4968814;28;20097;-50
2022/05/21 07:12:43;;;;;;;31.92;8.55;;;;;;;12.91;62.84;100812.34;4950492;29;20028;-50
2022/05/21 07:15:10;;;;;;;47.58;9.93;;;;;;;13.02;62.56;100812.66;4955352;28;20492;-52
2022/05/21 07:17:36;;;;;;;42.88;10.35;;;;;;;13.03;62.94;100806.22;4954521;28;20031;-51
2022/05/21 07:20:08;;;;;;;39.83;9.57;;;;;;;12.99;62.77;100813.09;4955198;28;20043;-49
2022/05/21 07:22:34;;;;;;;33.28;8.98;;;;;;;13.09;62.40;100813.41;4954675;28;20468;-51
2022/05/21 07:25:03;;;;;;;48.58;10.50;;;;;;;13.08;62.55;100809.06;4954581;28;20436;-51
2022/05/21 07:27:30;;;;;;;40.85;10.73;;;;;;;12.91;63.16;100817.72;4955065;28;20073;-51
2022/05/21 07:29:56;;;;;;;46.25;10.63;;;;;;;13.00;62.27;100812.88;4954754;28;20035;-50
2022/05/21 07:32:27;;;;;;;43.38;11.50;;;;;;;13.07;62.71;100820.88;4954503;28;20058;-51
2022/05/21 07:35:04;;;;;;;44.50;10.02;;;;;;;13.09;62.64;100821.47;4954653;28;20038;-50
2022/05/21 07:37:31;;;;;;;39.67;10.27;;;;;;;13.27;62.09;100810.78;4954333;28;20027;-50
2022/05/21 07:39:57;;;;;;;41.03;9.88;;;;;;;13.23;62.50;100812.25;4954580;28;20094;-50
2022/05/21 07:42:23;;;;;;;40.47;9.75;;;;;;;13.14;62.64;100811.69;4954688;28;20059;-49
2022/05/21 07:44:50;;;;;;;41.30;10.02;;;;;;;13.16;63.06;100814.19;4954178;28;20057;-50
2022/05/21 07:47:16;;;;;;;48.83;10.00;;;;;;;13.18;63.26;100810.22;4954317;28;20027;-50
2022/05/21 07:49:43;;;;;;;42.58;10.00;;;;;;;12.83;64.18;100820.69;4954574;28;20031;-49
2022/05/21 07:52:09;;;;;;;41.58;11.32;;;;;;;13.07;63.57;100815.50;4954139;28;20034;-52
2022/05/21 07:54:36;;;;;;;36.00;8.90;;;;;;;12.77;64.42;100821.59;4953805;28;20468;-49
2022/05/21 07:57:02;;;;;;;44.35;11.60;;;;;;;12.79;64.65;100822.19;4954104;28;20031;-50
2022/05/21 07:59:29;;;;;;;42.17;9.40;;;;;;;12.94;64.08;100825.34;4949941;28;20032;-49
2022/05/21 08:01:55;;;;;;;46.33;10.40;;;;;;;13.16;63.58;100823.06;4972491;28;20030;-51
2022/05/21 08:04:21;;;;;;;49.40;10.38;;;;;;;12.96;64.07;100819.75;4973530;28;20460;-51
2022/05/21 08:06:48;;;;;;;41.05;10.13;;;;;;;13.03;64.05;100819.66;4973378;28;20054;-52
2022/05/21 08:09:14;;;;;;;45.50;9.85;;;;;;;13.12;63.82;100823.72;4972700;28;20089;-49
2022/05/21 08:11:40;;;;;;;41.45;10.68;;;;;;;12.79;64.91;100824.88;4969459;28;20488;-49
2022/05/21 08:14:08;;;;;;;34.70;10.10;;;;;;;12.90;64.15;100824.13;4952094;28;20023;-51
2022/05/21 08:16:35;;;;;;;33.08;8.70;;;;;;;12.71;65.10;100814.38;4953917;28;20035;-52
2022/05/21 08:19:01;;;;;;;37.00;10.13;;;;;;;12.77;65.00;100826.97;4953994;28;20467;-51
2022/05/21 08:21:28;;;;;;;52.25;11.05;;;;;;;12.77;65.26;100824.28;4954039;28;20035;-50
2022/05/21 08:26:56;;;;;;;39.92;9.60;;;;;;;12.76;65.43;100829.84;4954059;29;20046;-52
2022/05/21 08:29:27;;;;;;;32.35;8.35;;;;;;;12.75;65.45;100828.22;4950376;28;20452;-48
2022/05/21 08:31:54;;;;;;;37.50;9.30;;;;;;;12.64;65.92;100821.69;4950233;28;20026;-52
2022/05/21 08:34:21;;;;;;;47.30;10.35;;;;;;;12.62;65.95;100823.78;4934563;29;20031;-52
2022/05/21 08:36:48;;;;;;;37.40;9.38;;;;;;;12.56;66.34;100827.34;4939021;28;20032;-49
2022/05/21 08:39:16;;;;;;;39.63;9.68;;;;;;;12.84;65.29;100827.72;4934266;29;20036;-49
2022/05/21 08:41:56;;;;;;;41.25;10.57;;;;;;;12.75;65.30;100833.59;4937786;28;20125;-49
2022/05/21 08:44:39;;;;;;;49.15;9.50;;;;;;;12.89;65.04;100824.38;4952110;28;20500;-49
2022/05/21 08:47:22;;;;;;;42.17;11.05;;;;;;;12.71;66.22;100832.38;4953297;28;20488;-48
2022/05/21 08:50:14;;;;;;;47.10;10.35;;;;;;;12.65;66.67;100832.19;4943622;28;20074;-52
2022/05/21 08:53:02;;;;;;;35.15;9.38;;;;;;;12.57;66.11;100820.94;4933754;29;20039;-51
2022/05/21 08:55:39;;;;;;;42.17;10.20;;;;;;;12.72;66.34;100831.34;4934133;29;20043;-50
2022/05/21 08:58:31;;;;;;;44.78;9.95;;;;;;;12.84;66.14;100825.03;4933049;28;20086;-51
2022/05/21 09:00:58;;;;;;;44.17;10.85;;;;;;;12.82;65.91;100828.97;4943304;29;20476;-50
2022/05/21 09:03:26;;;;;;;42.75;10.25;;;;;;;12.81;65.88;100830.81;4933893;29;20027;-48
2022/05/21 09:06:05;;;;;;;42.95;10.80;;;;;;;12.82;66.38;100810.97;4941769;29;20031;-51
2022/05/21 09:08:34;;;;;;;43.80;10.68;;;;;;;12.25;68.64;100823.66;4933927;28;20030;-49
2022/05/21 09:11:06;;;;;;;38.70;9.52;;;;;;;12.30;66.10;100826.50;4935152;29;20062;-48
2022/05/21 09:13:58;;;;;;;30.05;9.15;;;;;;;12.57;63.66;100818.25;4933739;28;20046;-48
2022/05/21 09:19:10;;;;;;;37.55;7.93;;;;;;;12.55;61.99;100820.34;4946482;28;20419;-50
2022/05/21 09:21:47;;;;;;;32.88;7.63;;;;;;;12.61;62.44;100825.66;4936965;28;20039;-48
2022/05/21 09:24:33;;;;;;;35.00;8.80;;;;;;;12.53;62.72;100827.78;4938662;28;20079;-49
2022/05/21 09:27:00;;;;;;;30.15;7.22;;;;;;;12.08;64.76;100831.41;4936192;29;20040;-50
2022/05/21 09:29:33;;;;;;;25.90;7.30;;;;;;;12.13;62.76;100830.75;4939595;29;20176;-49
2022/05/21 09:32:15;;;;;;;27.80;7.45;;;;;;;12.22;62.40;100832.16;4938428;29;20032;-49
2022/05/21 09:34:42;;;;;;;29.60;7.93;;;;;;;12.20;62.60;100831.53;4940409;28;20031;-49
2022/05/21 09:37:16;;;;;;;36.38;9.05;;;;;;;12.42;63.34;100824.75;4944547;28;20023;-48
2022/05/21 09:39:43;;;;;;;36.67;8.23;;;;;;;12.28;64.78;100836.66;4954809;28;20039;-51
2022/05/21 09:45:23;;;;;;;;;;;;;;;12.27;66.00;100834.16;4936881;29;20427;-48
2022/05/21 09:47:51;;;;;;;35.88;9.07;;;;;;;12.27;66.45;100835.00;4937947;28;20335;-52
2022/05/21 09:50:23;;;;;;;30.00;8.18;;;;;;;11.88;66.42;100841.41;4946088;29;20348;-49
2022/05/21 09:52:50;;;;;;;22.52;7.25;;;;;;;11.99;65.52;100845.28;4936142;28;20118;-48
2022/05/21 09:55:29;;;;;;;39.95;9.23;;;;;;;12.06;64.27;100835.34;4947364;28;20054;-52
2022/05/21 09:58:09;;;;;;;33.00;8.70;;;;;;;12.23;64.14;100841.84;4948665;28;20078;-49
2022/05/21 10:00:37;;;;;;;32.90;9.13;;;;;;;12.20;66.27;100839.56;4943794;28;20106;-51
2022/05/21 10:03:07;;;;;;;50.67;10.52;;;;;;;12.24;66.24;100838.09;4947320;28;20071;-51
2022/05/21 10:05:50;;;;;;;45.92;11.48;;;;;;;12.35;67.01;100839.28;4945693;28;20602;-51
2022/05/21 10:11:29;;;;;;;38.10;10.07;;;;;;;12.36;67.34;100843.59;4966651;28;20575;-50
2022/05/21 10:14:02;;;;;;;51.03;10.75;;;;;;;12.09;67.82;100846.44;4956755;28;20039;-51
2022/05/21 10:16:48;;;;;;;30.08;8.07;;;;;;;12.11;66.31;100846.25;4951381;28;20078;-51
2022/05/21 10:19:53;;;;;;;31.23;9.07;;;;;;;12.09;66.37;100848.31;4953748;28;20444;-49
2022/05/21 10:22:25;;;;;;;37.08;8.05;;;;;;;12.04;65.79;100848.94;4936498;29;20043;-50
2022/05/21 10:25:05;;;;;;;37.00;9.15;;;;;;;12.01;66.41;100851.25;4937059;29;20023;-50
2022/05/21 10:27:47;;;;;;;37.78;9.68;;;;;;;12.03;66.72;100852.69;4938353;29;20024;-52
2022/05/21 10:30:19;;;;;;;33.42;7.95;;;;;;;11.96;65.37;100845.72;4955334;28;20109;-51
2022/05/21 10:32:57;;;;;;;32.03;7.57;;;;;;;12.08;63.61;100852.84;4934469;29;20024;-52
2022/05/21 10:35:42;;;;;;;29.13;7.57;;;;;;;11.45;65.31;100862.63;4936434;28;20027;-51
2022/05/21 10:38:08;;;;;;;34.13;7.20;;;;;;;11.64;63.78;100859.03;4936263;28;20037;-51
2022/05/21 10:40:55;;;;;;;25.77;6.07;;;;;;;11.55;63.09;100854.97;4950967;28;20469;-51
2022/05/21 10:43:36;;;;;;;23.38;6.25;;;;;;;10.96;63.95;100863.94;4936545;29;20032;-51
2022/05/21 10:46:18;;;;;;;24.10;6.65;;;;;;;10.83;64.29;100867.47;4940096;28;20028;-49
2022/05/21 10:49:11;;;;;;;23.52;6.07;;;;;;;11.09;63.28;100861.25;4943380;28;20035;-52
2022/05/21 10:51:49;;;;;;;23.75;6.65;;;;;;;11.13;62.81;100862.47;4940333;29;20062;-50
2022/05/21 10:54:42;;;;;;;21.35;4.85;;;;;;;11.15;62.64;100867.63;4936693;28;20042;-52
2022/05/21 10:57:35;;;;;;;19.23;5.60;;;;;;;11.08;63.00;100873.00;4971342;28;20034;-52
2022/05/21 11:00:16;;;;;;;27.00;6.55;;;;;;;11.18;62.90;100876.06;4936380;29;20122;-52
2022/05/21 11:03:19;;;;;;;24.30;6.70;;;;;;;11.28;63.06;100878.34;4944338;29;20114;-49
2022/05/21 11:06:04;;;;;;;30.27;7.40;;;;;;;11.23;63.93;100873.59;4954672;28;20023;-52
2022/05/21 11:08:48;;;;;;;35.63;9.15;;;;;;;11.30;65.26;100874.41;4956777;28;20623;-48
2022/05/21 11:11:27;;;;;;;35.55;9.20;;;;;;;11.37;66.77;100880.56;4936584;29;20484;-51
2022/05/21 11:13:55;;;;;;;37.30;9.07;;;;;;;11.28;67.07;100881.00;4938757;28;20298;-51
2022/05/21 11:16:32;;;;;;;25.35;5.85;;;;;;;10.91;65.47;100890.53;4940111;28;20039;-48
2022/05/21 11:19:04;;;;;;;17.23;5.32;;;;;;;10.38;65.38;100896.66;4937352;28;20039;-49
2022/05/21 11:21:49;;;;;;;18.98;5.80;;;;;;;10.58;64.18;100881.47;4946212;29;20031;-48
2022/05/21 11:24:37;;;;;;;17.02;5.68;;;;;;;10.45;65.49;100900.19;4931384;29;20034;-50
2022/05/21 11:27:29;;;;;;;29.42;6.88;;;;;;;10.57;65.25;100900.41;4933657;29;21448;-48
2022/05/21 11:30:04;;;;;;;15.88;6.07;;;;;;;10.76;64.50;100894.22;4936359;28;20118;-49
2022/05/21 11:38:26;;;;;;;25.88;6.47;;;;;;;10.15;66.31;100897.00;4935000;29;20066;-51
2022/05/21 11:41:27;;;;;;;22.95;7.55;;;;;;;10.59;65.08;100906.38;4934874;28;20133;-51
2022/05/21 11:47:05;;;;;;;27.45;6.38;;;;;;;10.34;66.61;100899.97;4934296;29;20039;-50
2022/05/21 11:49:32;;;;;;;26.52;6.93;;;;;;;10.54;65.45;100912.31;4933924;28;20054;-48
2022/05/21 11:51:58;;;;;;;26.70;6.45;;;;;;;10.79;65.23;100904.53;4944239;28;20031;-48
2022/05/21 11:54:47;;;;;;;29.33;7.40;;;;;;;10.59;65.57;100906.38;4938283;29;20057;-48
2022/05/21 11:57:34;;;;;;;25.40;6.45;;;;;;;10.61;64.83;100907.00;4938509;28;20480;-49
2022/05/21 12:00:04;;;;;;;14.18;4.93;;;;;;;10.47;64.17;100906.16;4943575;29;20031;-48